sensor_id;sensor_type;location;lat;lon;timestamp;temperature;humidity
11666;DHT22;5889;51.350;6.708;2023-02-28T00:01:10;0.90;99.90
11666;DHT22;5889;51.350;6.708;2023-02-28T00:03:37;0.90;99.90
11666;DHT22;5889;51.350;6.708;2023-02-28T00:06:08;0.90;99.90
11666;DHT22;5889;51.350;6.708;2023-02-28T00:08:38;0.90;99.90
11666;DHT22;5889;51.350;6.708;2023-02-28T00:11:07;0.80;99.90
11666;DHT22;5889;51.350;6.708;2023-02-28T00:13:36;0.80;99.90
11666;DHT22;5889;51.350;6.708;2023-02-28T00:16:06;0.80;99.90
11666;DHT22;5889;51.350;6.708;2023-02-28T00:18:33;0.70;99.90
11666;DHT22;5889;51.350;6.708;2023-02-28T00:21:01;0.80;99.90
11666;DHT22;5889;51.350;6.708;2023-02-28T00:23:28;0.70;99.90
11666;DHT22;5889;51.350;6.708;2023-02-28T00:25:56;0.70;99.90
11666;DHT22;5889;51.350;6.708;2023-02-28T00:28:24;0.70;99.90
11666;DHT22;5889;51.350;6.708;2023-02-28T00:30:51;0.70;99.90
11666;DHT22;5889;51.350;6.708;2023-02-28T00:33:18;0.70;99.90
11666;DHT22;5889;51.350;6.708;2023-02-28T00:35:45;0.70;99.90
11666;DHT22;5889;51.350;6.708;2023-02-28T00:38:12;0.70;99.90
11666;DHT22;5889;51.350;6.708;2023-02-28T00:40:39;0.60;99.90
11666;DHT22;5889;51.350;6.708;2023-02-28T00:43:08;0.60;99.90
11666;DHT22;5889;51.350;6.708;2023-02-28T00:45:35;0.60;99.90
11666;DHT22;5889;51.350;6.708;2023-02-28T00:48:01;0.60;99.90
11666;DHT22;5889;51.350;6.708;2023-02-28T00:50:29;0.60;99.90
11666;DHT22;5889;51.350;6.708;2023-02-28T00:52:56;0.50;99.90
11666;DHT22;5889;51.350;6.708;2023-02-28T00:55:23;0.50;99.90
11666;DHT22;5889;51.350;6.708;2023-02-28T00:57:50;0.50;99.90
11666;DHT22;5889;51.350;6.708;2023-02-28T01:00:19;0.40;99.90
11666;DHT22;5889;51.350;6.708;2023-02-28T01:02:46;0.40;99.90
11666;DHT22;5889;51.350;6.708;2023-02-28T01:05:13;0.40;99.90
11666;DHT22;5889;51.350;6.708;2023-02-28T01:07:40;0.40;99.90
11666;DHT22;5889;51.350;6.708;2023-02-28T01:10:08;0.40;99.90
11666;DHT22;5889;51.350;6.708;2023-02-28T01:12:36;0.30;99.90
11666;DHT22;5889;51.350;6.708;2023-02-28T01:15:03;0.30;99.90
11666;DHT22;5889;51.350;6.708;2023-02-28T01:17:32;0.30;99.90
11666;DHT22;5889;51.350;6.708;2023-02-28T01:19:59;0.30;99.90
11666;DHT22;5889;51.350;6.708;2023-02-28T01:22:26;0.30;99.90
11666;DHT22;5889;51.350;6.708;2023-02-28T01:24:53;0.30;99.90
11666;DHT22;5889;51.350;6.708;2023-02-28T01:27:20;0.30;99.90
11666;DHT22;5889;51.350;6.708;2023-02-28T01:29:47;0.20;99.90
11666;DHT22;5889;51.350;6.708;2023-02-28T01:32:14;0.20;99.90
11666;DHT22;5889;51.350;6.708;2023-02-28T01:34:43;0.20;99.90
11666;DHT22;5889;51.350;6.708;2023-02-28T01:37:10;0.20;99.90
11666;DHT22;5889;51.350;6.708;2023-02-28T01:39:37;0.20;99.90
11666;DHT22;5889;51.350;6.708;2023-02-28T01:42:04;0.20;99.90
11666;DHT22;5889;51.350;6.708;2023-02-28T01:44:57;0.10;99.90
11666;DHT22;5889;51.350;6.708;2023-02-28T01:47:28;0.10;99.90
11666;DHT22;5889;51.350;6.708;2023-02-28T01:49:57;0.10;99.90
11666;DHT22;5889;51.350;6.708;2023-02-28T01:52:25;0.10;99.90
11666;DHT22;5889;51.350;6.708;2023-02-28T01:54:55;0.10;99.90
11666;DHT22;5889;51.350;6.708;2023-02-28T01:57:26;0.10;99.90
11666;DHT22;5889;51.350;6.708;2023-02-28T01:59:58;0.10;99.90
11666;DHT22;5889;51.350;6.708;2023-02-28T02:02:27;0.10;99.90
11666;DHT22;5889;51.350;6.708;2023-02-28T02:04:59;0.00;99.90
11666;DHT22;5889;51.350;6.708;2023-02-28T02:07:30;0.00;99.90
11666;DHT22;5889;51.350;6.708;2023-02-28T02:10:03;0.00;99.90
11666;DHT22;5889;51.350;6.708;2023-02-28T02:12:42;0.00;99.90
11666;DHT22;5889;51.350;6.708;2023-02-28T02:15:16;0.00;99.90
11666;DHT22;5889;51.350;6.708;2023-02-28T02:17:50;0.00;99.90
11666;DHT22;5889;51.350;6.708;2023-02-28T02:20:46;-0.10;99.90
11666;DHT22;5889;51.350;6.708;2023-02-28T02:26:55;-0.10;99.90
11666;DHT22;5889;51.350;6.708;2023-02-28T02:32:44;-0.10;99.90
11666;DHT22;5889;51.350;6.708;2023-02-28T02:35:16;-0.10;99.90
11666;DHT22;5889;51.350;6.708;2023-02-28T02:37:50;-0.20;99.90
11666;DHT22;5889;51.350;6.708;2023-02-28T02:40:20;-0.20;99.90
11666;DHT22;5889;51.350;6.708;2023-02-28T02:42:51;-0.20;99.90
11666;DHT22;5889;51.350;6.708;2023-02-28T02:45:25;-0.20;99.90
11666;DHT22;5889;51.350;6.708;2023-02-28T02:47:53;-0.20;99.90
11666;DHT22;5889;51.350;6.708;2023-02-28T02:50:28;-0.20;99.90
11666;DHT22;5889;51.350;6.708;2023-02-28T02:52:58;-0.30;99.90
11666;DHT22;5889;51.350;6.708;2023-02-28T02:55:27;-0.20;99.90
11666;DHT22;5889;51.350;6.708;2023-02-28T02:57:58;-0.30;99.90
11666;DHT22;5889;51.350;6.708;2023-02-28T03:00:31;-0.30;99.90
11666;DHT22;5889;51.350;6.708;2023-02-28T03:03:01;-0.30;99.90
11666;DHT22;5889;51.350;6.708;2023-02-28T03:05:33;-0.30;99.90
11666;DHT22;5889;51.350;6.708;2023-02-28T03:08:04;-0.30;99.90
11666;DHT22;5889;51.350;6.708;2023-02-28T03:10:34;-0.40;99.90
11666;DHT22;5889;51.350;6.708;2023-02-28T03:13:14;-0.40;99.90
11666;DHT22;5889;51.350;6.708;2023-02-28T03:15:54;-0.40;99.90
11666;DHT22;5889;51.350;6.708;2023-02-28T03:18:29;-0.40;99.90
11666;DHT22;5889;51.350;6.708;2023-02-28T03:21:06;-0.40;99.90
11666;DHT22;5889;51.350;6.708;2023-02-28T03:23:40;-0.50;99.90
11666;DHT22;5889;51.350;6.708;2023-02-28T03:26:16;-0.50;99.90
11666;DHT22;5889;51.350;6.708;2023-02-28T03:28:51;-0.50;99.90
11666;DHT22;5889;51.350;6.708;2023-02-28T03:31:23;-0.50;99.90
11666;DHT22;5889;51.350;6.708;2023-02-28T03:33:58;-0.50;99.90
11666;DHT22;5889;51.350;6.708;2023-02-28T03:36:30;-0.50;99.90
11666;DHT22;5889;51.350;6.708;2023-02-28T03:39:00;-0.50;99.90
11666;DHT22;5889;51.350;6.708;2023-02-28T03:41:32;-0.50;99.90
11666;DHT22;5889;51.350;6.708;2023-02-28T03:44:06;-0.50;99.90
11666;DHT22;5889;51.350;6.708;2023-02-28T03:46:37;-0.50;99.90
11666;DHT22;5889;51.350;6.708;2023-02-28T03:49:09;-0.60;99.90
11666;DHT22;5889;51.350;6.708;2023-02-28T03:51:44;-0.60;99.90
11666;DHT22;5889;51.350;6.708;2023-02-28T03:54:14;-0.70;99.90
11666;DHT22;5889;51.350;6.708;2023-02-28T03:56:45;-0.70;99.90
11666;DHT22;5889;51.350;6.708;2023-02-28T03:59:16;-0.70;99.90
11666;DHT22;5889;51.350;6.708;2023-02-28T04:01:48;-0.70;99.90
11666;DHT22;5889;51.350;6.708;2023-02-28T04:04:16;-0.70;99.90
11666;DHT22;5889;51.350;6.708;2023-02-28T04:06:45;-0.70;99.90
11666;DHT22;5889;51.350;6.708;2023-02-28T04:09:14;-0.70;99.90
11666;DHT22;5889;51.350;6.708;2023-02-28T04:11:42;-0.70;99.90
11666;DHT22;5889;51.350;6.708;2023-02-28T04:14:11;-0.70;99.90
11666;DHT22;5889;51.350;6.708;2023-02-28T04:16:40;-0.70;99.90
11666;DHT22;5889;51.350;6.708;2023-02-28T04:19:08;-0.80;99.90
11666;DHT22;5889;51.350;6.708;2023-02-28T04:21:37;-0.80;99.90
11666;DHT22;5889;51.350;6.708;2023-02-28T04:24:08;-0.80;99.90
11666;DHT22;5889;51.350;6.708;2023-02-28T04:26:40;-0.80;99.90
11666;DHT22;5889;51.350;6.708;2023-02-28T04:29:10;-0.80;99.90
11666;DHT22;5889;51.350;6.708;2023-02-28T04:31:38;-0.80;99.90
11666;DHT22;5889;51.350;6.708;2023-02-28T04:34:05;-0.80;99.90
11666;DHT22;5889;51.350;6.708;2023-02-28T04:36:32;-0.90;99.90
11666;DHT22;5889;51.350;6.708;2023-02-28T04:38:59;-0.90;99.90
11666;DHT22;5889;51.350;6.708;2023-02-28T04:41:27;-0.90;99.90
11666;DHT22;5889;51.350;6.708;2023-02-28T04:43:54;-0.90;99.90
11666;DHT22;5889;51.350;6.708;2023-02-28T04:46:22;-0.90;99.90
11666;DHT22;5889;51.350;6.708;2023-02-28T04:48:49;-0.90;99.90
11666;DHT22;5889;51.350;6.708;2023-02-28T04:51:17;-0.90;99.90
11666;DHT22;5889;51.350;6.708;2023-02-28T04:53:45;-0.90;99.90
11666;DHT22;5889;51.350;6.708;2023-02-28T04:56:14;-0.90;99.90
11666;DHT22;5889;51.350;6.708;2023-02-28T04:58:43;-0.90;99.90
11666;DHT22;5889;51.350;6.708;2023-02-28T05:01:21;-0.90;99.90
11666;DHT22;5889;51.350;6.708;2023-02-28T05:03:48;-0.90;99.90
11666;DHT22;5889;51.350;6.708;2023-02-28T05:06:16;-0.90;99.90
11666;DHT22;5889;51.350;6.708;2023-02-28T05:08:43;-0.90;99.90
11666;DHT22;5889;51.350;6.708;2023-02-28T05:11:15;-0.90;99.90
11666;DHT22;5889;51.350;6.708;2023-02-28T05:13:44;-0.90;99.90
11666;DHT22;5889;51.350;6.708;2023-02-28T05:16:11;-0.90;99.90
11666;DHT22;5889;51.350;6.708;2023-02-28T05:18:38;-1.00;99.90
11666;DHT22;5889;51.350;6.708;2023-02-28T05:21:06;-1.00;99.90
11666;DHT22;5889;51.350;6.708;2023-02-28T05:23:41;-1.00;99.90
11666;DHT22;5889;51.350;6.708;2023-02-28T05:26:08;-1.00;99.90
11666;DHT22;5889;51.350;6.708;2023-02-28T05:28:35;-1.00;99.90
11666;DHT22;5889;51.350;6.708;2023-02-28T05:31:04;-1.00;99.90
11666;DHT22;5889;51.350;6.708;2023-02-28T05:33:30;-1.00;99.90
11666;DHT22;5889;51.350;6.708;2023-02-28T05:35:58;-1.00;99.90
11666;DHT22;5889;51.350;6.708;2023-02-28T05:38:25;-1.00;99.90
11666;DHT22;5889;51.350;6.708;2023-02-28T05:40:52;-1.10;99.90
11666;DHT22;5889;51.350;6.708;2023-02-28T05:43:19;-1.10;99.90
11666;DHT22;5889;51.350;6.708;2023-02-28T05:45:46;-1.10;99.90
11666;DHT22;5889;51.350;6.708;2023-02-28T05:48:15;-1.10;99.90
11666;DHT22;5889;51.350;6.708;2023-02-28T05:50:42;-1.10;99.90
11666;DHT22;5889;51.350;6.708;2023-02-28T05:53:11;-1.10;99.90
11666;DHT22;5889;51.350;6.708;2023-02-28T05:55:38;-1.10;99.90
11666;DHT22;5889;51.350;6.708;2023-02-28T05:58:06;-1.10;99.90
11666;DHT22;5889;51.350;6.708;2023-02-28T06:00:34;-1.10;99.90
11666;DHT22;5889;51.350;6.708;2023-02-28T06:03:01;-1.20;99.90
11666;DHT22;5889;51.350;6.708;2023-02-28T06:05:29;-1.20;99.90
11666;DHT22;5889;51.350;6.708;2023-02-28T06:07:56;-1.20;99.90
11666;DHT22;5889;51.350;6.708;2023-02-28T06:10:23;-1.20;99.90
11666;DHT22;5889;51.350;6.708;2023-02-28T06:12:50;-1.30;99.90
11666;DHT22;5889;51.350;6.708;2023-02-28T06:15:17;-1.30;99.90
11666;DHT22;5889;51.350;6.708;2023-02-28T06:17:46;-1.30;99.90
11666;DHT22;5889;51.350;6.708;2023-02-28T06:20:13;-1.30;99.90
11666;DHT22;5889;51.350;6.708;2023-02-28T06:22:41;-1.30;99.90
11666;DHT22;5889;51.350;6.708;2023-02-28T06:25:09;-1.30;99.90
11666;DHT22;5889;51.350;6.708;2023-02-28T06:27:37;-1.30;99.90
11666;DHT22;5889;51.350;6.708;2023-02-28T06:30:04;-1.30;99.90
11666;DHT22;5889;51.350;6.708;2023-02-28T06:32:32;-1.20;99.90
11666;DHT22;5889;51.350;6.708;2023-02-28T06:34:59;-1.20;99.90
11666;DHT22;5889;51.350;6.708;2023-02-28T06:37:26;-1.20;99.90
11666;DHT22;5889;51.350;6.708;2023-02-28T06:39:54;-1.20;99.90
11666;DHT22;5889;51.350;6.708;2023-02-28T06:42:22;-1.20;99.90
11666;DHT22;5889;51.350;6.708;2023-02-28T06:44:50;-1.20;99.90
11666;DHT22;5889;51.350;6.708;2023-02-28T06:47:17;-1.20;99.90
11666;DHT22;5889;51.350;6.708;2023-02-28T06:49:44;-1.20;99.90
11666;DHT22;5889;51.350;6.708;2023-02-28T06:52:11;-1.10;99.90
11666;DHT22;5889;51.350;6.708;2023-02-28T06:54:38;-1.10;99.90
11666;DHT22;5889;51.350;6.708;2023-02-28T06:57:07;-1.10;99.90
11666;DHT22;5889;51.350;6.708;2023-02-28T06:59:34;-1.00;99.90
11666;DHT22;5889;51.350;6.708;2023-02-28T07:02:02;-1.00;99.90
11666;DHT22;5889;51.350;6.708;2023-02-28T07:04:31;-1.00;99.90
11666;DHT22;5889;51.350;6.708;2023-02-28T07:06:58;-1.00;99.90
11666;DHT22;5889;51.350;6.708;2023-02-28T07:09:25;-0.90;99.90
11666;DHT22;5889;51.350;6.708;2023-02-28T07:11:55;-0.90;99.90
11666;DHT22;5889;51.350;6.708;2023-02-28T07:14:24;-0.90;99.90
11666;DHT22;5889;51.350;6.708;2023-02-28T07:16:51;-0.90;99.90
11666;DHT22;5889;51.350;6.708;2023-02-28T07:19:18;-0.80;99.90
11666;DHT22;5889;51.350;6.708;2023-02-28T07:21:45;-0.80;99.90
11666;DHT22;5889;51.350;6.708;2023-02-28T07:24:12;-0.80;99.90
11666;DHT22;5889;51.350;6.708;2023-02-28T07:26:41;-0.70;99.90
11666;DHT22;5889;51.350;6.708;2023-02-28T07:29:08;-0.70;99.90
11666;DHT22;5889;51.350;6.708;2023-02-28T07:31:36;-0.60;99.90
11666;DHT22;5889;51.350;6.708;2023-02-28T07:34:03;-0.60;99.90
11666;DHT22;5889;51.350;6.708;2023-02-28T07:36:30;-0.50;99.90
11666;DHT22;5889;51.350;6.708;2023-02-28T07:38:58;-0.50;99.90
11666;DHT22;5889;51.350;6.708;2023-02-28T07:41:25;-0.40;99.90
11666;DHT22;5889;51.350;6.708;2023-02-28T07:43:54;-0.30;99.90
11666;DHT22;5889;51.350;6.708;2023-02-28T07:46:21;-0.30;99.90
11666;DHT22;5889;51.350;6.708;2023-02-28T07:48:49;-0.20;99.90
11666;DHT22;5889;51.350;6.708;2023-02-28T07:51:16;-0.20;99.90
11666;DHT22;5889;51.350;6.708;2023-02-28T07:53:43;-0.10;99.90
11666;DHT22;5889;51.350;6.708;2023-02-28T07:56:10;0.00;99.90
11666;DHT22;5889;51.350;6.708;2023-02-28T07:58:37;0.00;99.90
11666;DHT22;5889;51.350;6.708;2023-02-28T08:01:05;0.00;99.90
11666;DHT22;5889;51.350;6.708;2023-02-28T08:03:33;0.10;99.90
11666;DHT22;5889;51.350;6.708;2023-02-28T08:06:01;0.20;99.90
11666;DHT22;5889;51.350;6.708;2023-02-28T08:08:29;0.30;99.90
11666;DHT22;5889;51.350;6.708;2023-02-28T08:10:58;0.40;99.90
11666;DHT22;5889;51.350;6.708;2023-02-28T08:13:26;0.50;99.90
11666;DHT22;5889;51.350;6.708;2023-02-28T08:15:54;0.50;99.90
11666;DHT22;5889;51.350;6.708;2023-02-28T08:18:22;0.70;99.90
11666;DHT22;5889;51.350;6.708;2023-02-28T08:20:49;0.70;99.90
11666;DHT22;5889;51.350;6.708;2023-02-28T08:23:17;0.80;99.90
11666;DHT22;5889;51.350;6.708;2023-02-28T08:25:45;0.90;99.90
11666;DHT22;5889;51.350;6.708;2023-02-28T08:28:12;1.00;99.90
11666;DHT22;5889;51.350;6.708;2023-02-28T08:30:39;1.10;99.90
11666;DHT22;5889;51.350;6.708;2023-02-28T08:33:06;1.30;99.90
11666;DHT22;5889;51.350;6.708;2023-02-28T08:35:35;1.40;99.90
11666;DHT22;5889;51.350;6.708;2023-02-28T08:38:03;1.50;99.90
11666;DHT22;5889;51.350;6.708;2023-02-28T08:40:31;1.60;99.90
11666;DHT22;5889;51.350;6.708;2023-02-28T08:43:01;1.70;99.90
11666;DHT22;5889;51.350;6.708;2023-02-28T08:45:28;1.80;99.90
11666;DHT22;5889;51.350;6.708;2023-02-28T08:47:55;1.90;99.90
11666;DHT22;5889;51.350;6.708;2023-02-28T08:50:22;2.00;99.60
11666;DHT22;5889;51.350;6.708;2023-02-28T08:52:49;2.00;99.50
11666;DHT22;5889;51.350;6.708;2023-02-28T08:55:16;2.20;99.60
11666;DHT22;5889;51.350;6.708;2023-02-28T08:57:44;2.30;99.10
11666;DHT22;5889;51.350;6.708;2023-02-28T09:00:12;2.40;98.70
11666;DHT22;5889;51.350;6.708;2023-02-28T09:02:40;2.40;98.70
11666;DHT22;5889;51.350;6.708;2023-02-28T09:05:08;2.50;98.00
11666;DHT22;5889;51.350;6.708;2023-02-28T09:07:35;2.70;97.80
11666;DHT22;5889;51.350;6.708;2023-02-28T09:10:03;2.70;97.30
11666;DHT22;5889;51.350;6.708;2023-02-28T09:12:33;2.80;96.80
11666;DHT22;5889;51.350;6.708;2023-02-28T09:15:02;2.90;95.50
11666;DHT22;5889;51.350;6.708;2023-02-28T09:17:29;3.00;96.00
11666;DHT22;5889;51.350;6.708;2023-02-28T09:19:56;3.10;95.60
11666;DHT22;5889;51.350;6.708;2023-02-28T09:22:23;3.10;95.30
11666;DHT22;5889;51.350;6.708;2023-02-28T09:24:50;3.20;95.10
11666;DHT22;5889;51.350;6.708;2023-02-28T09:27:17;3.10;94.80
11666;DHT22;5889;51.350;6.708;2023-02-28T09:29:44;3.20;95.10
11666;DHT22;5889;51.350;6.708;2023-02-28T09:32:12;3.30;95.30
11666;DHT22;5889;51.350;6.708;2023-02-28T09:34:39;3.40;94.40
11666;DHT22;5889;51.350;6.708;2023-02-28T09:37:07;3.40;94.50
11666;DHT22;5889;51.350;6.708;2023-02-28T09:39:34;3.50;94.50
11666;DHT22;5889;51.350;6.708;2023-02-28T09:42:02;3.40;94.10
11666;DHT22;5889;51.350;6.708;2023-02-28T09:44:33;3.60;93.50
11666;DHT22;5889;51.350;6.708;2023-02-28T09:47:07;3.50;93.40
11666;DHT22;5889;51.350;6.708;2023-02-28T09:49:40;3.50;93.60
11666;DHT22;5889;51.350;6.708;2023-02-28T09:52:12;3.50;92.80
11666;DHT22;5889;51.350;6.708;2023-02-28T09:54:40;3.60;92.90
11666;DHT22;5889;51.350;6.708;2023-02-28T09:57:19;3.60;92.50
11666;DHT22;5889;51.350;6.708;2023-02-28T09:59:54;3.70;93.10
11666;DHT22;5889;51.350;6.708;2023-02-28T10:03:03;3.80;93.20
11666;DHT22;5889;51.350;6.708;2023-02-28T10:05:37;3.90;92.70
11666;DHT22;5889;51.350;6.708;2023-02-28T10:08:12;4.00;92.30
11666;DHT22;5889;51.350;6.708;2023-02-28T10:10:42;4.10;92.50
11666;DHT22;5889;51.350;6.708;2023-02-28T10:13:17;4.20;91.60
11666;DHT22;5889;51.350;6.708;2023-02-28T10:15:49;4.10;91.70
11666;DHT22;5889;51.350;6.708;2023-02-28T10:18:23;4.10;91.70
11666;DHT22;5889;51.350;6.708;2023-02-28T10:20:53;4.20;91.70
11666;DHT22;5889;51.350;6.708;2023-02-28T10:23:24;4.40;91.70
11666;DHT22;5889;51.350;6.708;2023-02-28T10:25:54;4.50;91.20
11666;DHT22;5889;51.350;6.708;2023-02-28T10:28:24;4.60;91.30
11666;DHT22;5889;51.350;6.708;2023-02-28T10:30:53;4.70;91.40
11666;DHT22;5889;51.350;6.708;2023-02-28T10:33:23;4.80;90.70
11666;DHT22;5889;51.350;6.708;2023-02-28T10:35:51;4.90;90.00
11666;DHT22;5889;51.350;6.708;2023-02-28T10:38:22;4.90;88.30
11666;DHT22;5889;51.350;6.708;2023-02-28T10:40:51;4.70;88.70
11666;DHT22;5889;51.350;6.708;2023-02-28T10:43:22;4.60;89.60
11666;DHT22;5889;51.350;6.708;2023-02-28T10:45:57;4.80;89.10
11666;DHT22;5889;51.350;6.708;2023-02-28T10:48:33;4.60;88.70
11666;DHT22;5889;51.350;6.708;2023-02-28T10:51:02;4.60;88.20
11666;DHT22;5889;51.350;6.708;2023-02-28T10:53:34;4.50;88.10
11666;DHT22;5889;51.350;6.708;2023-02-28T10:56:04;4.60;89.80
11666;DHT22;5889;51.350;6.708;2023-02-28T10:58:46;4.80;89.30
11666;DHT22;5889;51.350;6.708;2023-02-28T11:01:16;5.00;88.70
11666;DHT22;5889;51.350;6.708;2023-02-28T11:03:44;5.10;88.50
11666;DHT22;5889;51.350;6.708;2023-02-28T11:06:17;5.20;88.70
11666;DHT22;5889;51.350;6.708;2023-02-28T11:08:49;5.40;87.40
11666;DHT22;5889;51.350;6.708;2023-02-28T11:11:17;5.40;87.00
11666;DHT22;5889;51.350;6.708;2023-02-28T11:13:46;5.50;86.80
11666;DHT22;5889;51.350;6.708;2023-02-28T11:16:16;5.50;85.70
11666;DHT22;5889;51.350;6.708;2023-02-28T11:18:47;5.50;87.40
11666;DHT22;5889;51.350;6.708;2023-02-28T11:21:24;5.50;85.90
11666;DHT22;5889;51.350;6.708;2023-02-28T11:23:58;5.50;86.50
11666;DHT22;5889;51.350;6.708;2023-02-28T11:26:39;5.50;86.40
11666;DHT22;5889;51.350;6.708;2023-02-28T11:29:11;5.50;86.80
11666;DHT22;5889;51.350;6.708;2023-02-28T11:31:38;5.50;86.60
11666;DHT22;5889;51.350;6.708;2023-02-28T11:34:24;5.50;85.50
11666;DHT22;5889;51.350;6.708;2023-02-28T11:36:52;5.60;85.30
11666;DHT22;5889;51.350;6.708;2023-02-28T11:39:21;5.60;85.90
11666;DHT22;5889;51.350;6.708;2023-02-28T11:42:00;5.60;86.50
11666;DHT22;5889;51.350;6.708;2023-02-28T11:44:43;5.60;86.40
11666;DHT22;5889;51.350;6.708;2023-02-28T11:47:19;5.70;85.40
11666;DHT22;5889;51.350;6.708;2023-02-28T11:50:07;5.60;84.80
11666;DHT22;5889;51.350;6.708;2023-02-28T11:52:44;5.60;85.10
11666;DHT22;5889;51.350;6.708;2023-02-28T11:55:18;5.70;84.60
11666;DHT22;5889;51.350;6.708;2023-02-28T11:58:00;5.80;85.00
11666;DHT22;5889;51.350;6.708;2023-02-28T12:00:57;5.90;85.10
11666;DHT22;5889;51.350;6.708;2023-02-28T12:03:34;5.90;85.70
11666;DHT22;5889;51.350;6.708;2023-02-28T12:06:13;6.00;85.50
11666;DHT22;5889;51.350;6.708;2023-02-28T12:08:49;6.00;85.90
11666;DHT22;5889;51.350;6.708;2023-02-28T12:11:30;6.00;86.10
11666;DHT22;5889;51.350;6.708;2023-02-28T12:14:16;6.00;85.40
11666;DHT22;5889;51.350;6.708;2023-02-28T12:16:58;6.00;85.20
11666;DHT22;5889;51.350;6.708;2023-02-28T12:19:31;6.00;85.10
11666;DHT22;5889;51.350;6.708;2023-02-28T12:22:24;6.00;84.60
11666;DHT22;5889;51.350;6.708;2023-02-28T12:25:13;5.90;84.40
11666;DHT22;5889;51.350;6.708;2023-02-28T12:27:48;5.90;85.20
11666;DHT22;5889;51.350;6.708;2023-02-28T12:30:19;5.90;84.10
11666;DHT22;5889;51.350;6.708;2023-02-28T12:32:51;5.80;82.50
11666;DHT22;5889;51.350;6.708;2023-02-28T12:35:23;5.70;82.20
11666;DHT22;5889;51.350;6.708;2023-02-28T12:37:55;5.50;84.20
11666;DHT22;5889;51.350;6.708;2023-02-28T12:40:26;5.50;84.60
11666;DHT22;5889;51.350;6.708;2023-02-28T12:42:58;5.50;85.20
11666;DHT22;5889;51.350;6.708;2023-02-28T12:45:31;5.60;84.30
11666;DHT22;5889;51.350;6.708;2023-02-28T12:48:01;5.60;84.00
11666;DHT22;5889;51.350;6.708;2023-02-28T12:50:29;5.60;84.40
11666;DHT22;5889;51.350;6.708;2023-02-28T12:53:02;5.60;82.90
11666;DHT22;5889;51.350;6.708;2023-02-28T12:55:33;5.60;83.50
11666;DHT22;5889;51.350;6.708;2023-02-28T12:58:10;5.60;83.80
11666;DHT22;5889;51.350;6.708;2023-02-28T13:00:50;5.60;84.40
11666;DHT22;5889;51.350;6.708;2023-02-28T13:06:52;5.40;84.80
11666;DHT22;5889;51.350;6.708;2023-02-28T13:09:24;5.50;85.20
11666;DHT22;5889;51.350;6.708;2023-02-28T13:11:52;5.60;84.60
11666;DHT22;5889;51.350;6.708;2023-02-28T13:14:24;5.50;85.30
11666;DHT22;5889;51.350;6.708;2023-02-28T13:16:57;5.40;84.90
11666;DHT22;5889;51.350;6.708;2023-02-28T13:19:27;5.60;85.70
11666;DHT22;5889;51.350;6.708;2023-02-28T13:21:57;5.60;84.60
11666;DHT22;5889;51.350;6.708;2023-02-28T13:24:44;5.60;84.20
11666;DHT22;5889;51.350;6.708;2023-02-28T13:27:24;5.70;85.50
11666;DHT22;5889;51.350;6.708;2023-02-28T13:30:00;5.80;85.20
11666;DHT22;5889;51.350;6.708;2023-02-28T13:32:34;5.70;84.90
11666;DHT22;5889;51.350;6.708;2023-02-28T13:35:35;5.80;85.00
11666;DHT22;5889;51.350;6.708;2023-02-28T13:38:25;5.90;84.40
11666;DHT22;5889;51.350;6.708;2023-02-28T13:44:00;6.00;84.50
11666;DHT22;5889;51.350;6.708;2023-02-28T13:46:30;5.90;85.80
11666;DHT22;5889;51.350;6.708;2023-02-28T13:49:20;5.80;84.10
11666;DHT22;5889;51.350;6.708;2023-02-28T13:51:48;5.70;85.40
11666;DHT22;5889;51.350;6.708;2023-02-28T13:54:27;5.70;85.90
11666;DHT22;5889;51.350;6.708;2023-02-28T13:57:08;5.80;85.30
11666;DHT22;5889;51.350;6.708;2023-02-28T13:59:46;5.90;84.90
11666;DHT22;5889;51.350;6.708;2023-02-28T14:02:34;5.90;84.50
11666;DHT22;5889;51.350;6.708;2023-02-28T14:05:06;6.00;84.90
11666;DHT22;5889;51.350;6.708;2023-02-28T14:07:45;6.00;85.00
11666;DHT22;5889;51.350;6.708;2023-02-28T14:10:22;6.10;83.30
11666;DHT22;5889;51.350;6.708;2023-02-28T14:12:59;6.00;85.00
11666;DHT22;5889;51.350;6.708;2023-02-28T14:15:47;5.80;85.60
11666;DHT22;5889;51.350;6.708;2023-02-28T14:18:35;5.70;87.20
11666;DHT22;5889;51.350;6.708;2023-02-28T14:21:14;5.70;85.50
11666;DHT22;5889;51.350;6.708;2023-02-28T14:26:58;5.80;85.40
11666;DHT22;5889;51.350;6.708;2023-02-28T14:29:43;5.80;87.60
11666;DHT22;5889;51.350;6.708;2023-02-28T14:32:25;5.80;86.10
11666;DHT22;5889;51.350;6.708;2023-02-28T14:35:00;5.80;85.70
11666;DHT22;5889;51.350;6.708;2023-02-28T14:37:32;5.80;86.10
11666;DHT22;5889;51.350;6.708;2023-02-28T14:40:00;6.00;86.20
11666;DHT22;5889;51.350;6.708;2023-02-28T14:42:31;6.00;85.70
11666;DHT22;5889;51.350;6.708;2023-02-28T14:44:59;6.10;85.90
11666;DHT22;5889;51.350;6.708;2023-02-28T14:47:28;6.10;85.20
11666;DHT22;5889;51.350;6.708;2023-02-28T14:49:59;6.00;86.70
11666;DHT22;5889;51.350;6.708;2023-02-28T14:52:28;6.00;87.00
11666;DHT22;5889;51.350;6.708;2023-02-28T14:55:00;5.90;85.50
11666;DHT22;5889;51.350;6.708;2023-02-28T14:57:29;5.90;85.30
11666;DHT22;5889;51.350;6.708;2023-02-28T15:00:05;5.90;86.20
11666;DHT22;5889;51.350;6.708;2023-02-28T15:02:37;5.90;86.40
11666;DHT22;5889;51.350;6.708;2023-02-28T15:05:24;6.00;86.90
11666;DHT22;5889;51.350;6.708;2023-02-28T15:08:03;6.10;86.80
11666;DHT22;5889;51.350;6.708;2023-02-28T15:10:31;6.10;86.00
11666;DHT22;5889;51.350;6.708;2023-02-28T15:13:00;6.10;86.40
11666;DHT22;5889;51.350;6.708;2023-02-28T15:15:43;5.90;86.70
11666;DHT22;5889;51.350;6.708;2023-02-28T15:18:16;5.80;88.60
11666;DHT22;5889;51.350;6.708;2023-02-28T15:20:50;5.70;89.20
11666;DHT22;5889;51.350;6.708;2023-02-28T15:23:18;5.70;89.80
11666;DHT22;5889;51.350;6.708;2023-02-28T15:25:47;5.60;90.10
11666;DHT22;5889;51.350;6.708;2023-02-28T15:28:17;5.50;90.00
11666;DHT22;5889;51.350;6.708;2023-02-28T15:30:54;5.50;89.80
11666;DHT22;5889;51.350;6.708;2023-02-28T15:33:24;5.50;89.50
11666;DHT22;5889;51.350;6.708;2023-02-28T15:36:04;5.40;90.70
11666;DHT22;5889;51.350;6.708;2023-02-28T15:38:35;5.40;90.30
11666;DHT22;5889;51.350;6.708;2023-02-28T15:41:02;5.40;90.70
11666;DHT22;5889;51.350;6.708;2023-02-28T15:43:34;5.40;90.20
11666;DHT22;5889;51.350;6.708;2023-02-28T15:46:03;5.40;90.10
11666;DHT22;5889;51.350;6.708;2023-02-28T15:48:32;5.40;90.10
11666;DHT22;5889;51.350;6.708;2023-02-28T15:51:06;5.40;90.00
11666;DHT22;5889;51.350;6.708;2023-02-28T15:53:37;5.40;90.50
11666;DHT22;5889;51.350;6.708;2023-02-28T15:56:21;5.30;90.80
11666;DHT22;5889;51.350;6.708;2023-02-28T15:58:50;5.40;91.00
11666;DHT22;5889;51.350;6.708;2023-02-28T16:01:24;5.40;91.20
11666;DHT22;5889;51.350;6.708;2023-02-28T16:03:53;5.40;90.80
11666;DHT22;5889;51.350;6.708;2023-02-28T16:06:33;5.30;90.90
11666;DHT22;5889;51.350;6.708;2023-02-28T16:09:00;5.20;90.80
11666;DHT22;5889;51.350;6.708;2023-02-28T16:11:27;5.10;91.10
11666;DHT22;5889;51.350;6.708;2023-02-28T16:13:56;5.10;91.10
11666;DHT22;5889;51.350;6.708;2023-02-28T16:16:25;5.00;91.40
11666;DHT22;5889;51.350;6.708;2023-02-28T16:18:52;5.00;91.60
11666;DHT22;5889;51.350;6.708;2023-02-28T16:21:20;5.00;91.20
11666;DHT22;5889;51.350;6.708;2023-02-28T16:23:48;5.00;91.10
11666;DHT22;5889;51.350;6.708;2023-02-28T16:26:21;4.90;91.60
11666;DHT22;5889;51.350;6.708;2023-02-28T16:28:48;4.90;91.70
11666;DHT22;5889;51.350;6.708;2023-02-28T16:31:16;4.90;91.40
11666;DHT22;5889;51.350;6.708;2023-02-28T16:33:45;4.90;91.40
11666;DHT22;5889;51.350;6.708;2023-02-28T16:36:16;4.90;91.50
11666;DHT22;5889;51.350;6.708;2023-02-28T16:38:44;4.80;91.30